Time;durP1;ratioP1;P1;durP2;ratioP2;P2;SDS_P1;SDS_P2;PMS_P1;PMS_P2;Temp;Humidity;BMP_temperature;BMP_pressure;BME280_temperature;BME280_humidity;BME280_pressure;Samples;Min_cycle;Max_cycle;Signal;HPM_P1;HPM_P2
2021/07/20 00:00:11;;;;;;;6.83;5.13;;;17.10;99.90;;;18.11;61.85;94337.47;5020624;28;20196;-72
2021/07/20 00:02:47;;;;;;;6.80;5.43;;;17.00;99.90;;;18.00;61.48;94336.09;5031490;28;20629;-73
2021/07/20 00:05:20;;;;;;;6.60;5.90;;;16.90;99.90;;;17.94;61.32;94337.28;5008339;28;20274;-71
2021/07/20 00:07:49;;;;;;;8.00;6.00;;;16.70;99.90;;;17.82;61.77;94337.00;5028767;28;20195;-73
2021/07/20 00:10:25;;;;;;;8.17;5.40;;;16.60;99.90;;;17.78;61.56;94336.81;5021400;28;20194;-73
2021/07/20 00:12:54;;;;;;;9.37;6.20;;;16.50;99.90;;;17.65;61.78;94336.78;5019089;28;20205;-72
2021/07/20 00:15:22;;;;;;;7.50;6.40;;;16.50;99.90;;;17.69;61.96;94338.59;5020614;28;20644;-72
2021/07/20 00:17:55;;;;;;;6.53;5.80;;;16.40;99.90;;;17.65;62.07;94334.13;5021728;28;20943;-72
2021/07/20 00:20:29;;;;;;;8.50;6.03;;;16.40;99.90;;;17.58;62.09;94339.06;5000698;28;20203;-73
2021/07/20 00:22:57;;;;;;;8.97;5.83;;;16.40;99.90;;;17.64;62.36;94327.16;5040419;28;20230;-73
2021/07/20 00:25:26;;;;;;;8.03;5.77;;;16.40;99.90;;;17.63;62.27;94337.09;5024677;28;20764;-73
2021/07/20 00:27:52;;;;;;;7.20;6.20;;;16.40;99.90;;;17.55;62.57;94332.41;5025180;28;20192;-73
2021/07/20 00:30:21;;;;;;;7.43;6.30;;;16.30;99.90;;;17.50;62.53;94331.69;5019405;28;21050;-73
2021/07/20 00:32:47;;;;;;;7.33;6.40;;;16.30;99.90;;;17.40;62.88;94336.13;5012783;28;22030;-73
2021/07/20 00:35:14;;;;;;;11.10;6.60;;;16.20;99.90;;;17.37;62.40;94330.56;4987636;28;20220;-72
2021/07/20 00:37:41;;;;;;;8.47;6.70;;;16.20;99.90;;;17.34;62.74;94331.16;5024476;28;20200;-73
2021/07/20 00:40:12;;;;;;;7.67;5.93;;;16.10;99.90;;;17.38;63.02;94329.50;5019121;28;20224;-72
2021/07/20 00:42:38;;;;;;;9.53;6.53;;;16.20;99.90;;;17.34;63.13;94328.50;5052950;28;20269;-73
2021/07/20 00:45:08;;;;;;;8.20;5.80;;;16.10;99.90;;;17.13;63.01;94314.66;5021250;28;20239;-72
2021/07/20 00:47:34;;;;;;;8.93;6.27;;;15.90;99.90;;;16.95;63.13;94323.56;5028930;28;20184;-72
2021/07/20 00:50:01;;;;;;;7.07;5.87;;;15.90;99.90;;;16.91;63.27;94327.91;5021510;28;20198;-71
2021/07/20 00:52:27;;;;;;;10.47;6.63;;;16.80;99.90;;;16.80;63.09;94318.44;5017662;28;20282;-72
2021/07/20 00:54:53;;;;;;;9.97;6.23;;;15.80;99.90;;;16.77;63.48;94321.69;5020803;28;20295;-71
2021/07/20 00:57:19;;;;;;;7.90;6.50;;;15.50;99.90;;;16.86;63.31;94323.41;5003753;28;20204;-73
2021/07/20 00:59:45;;;;;;;9.10;6.97;;;15.70;99.90;;;16.83;63.68;94315.16;5009709;28;20196;-72
2021/07/20 01:02:13;;;;;;;8.97;6.67;;;15.70;99.90;;;16.77;63.68;94317.16;5022609;28;20217;-71
2021/07/20 01:04:44;;;;;;;11.93;6.93;;;15.60;99.90;;;16.67;63.90;94314.63;5022305;28;20201;-72
2021/07/20 01:07:13;;;;;;;7.73;6.93;;;15.50;99.90;;;16.58;63.75;94324.41;5054064;28;20193;-72
2021/07/20 01:09:41;;;;;;;10.77;6.70;;;15.40;99.90;;;16.53;64.04;94315.63;5030838;28;20196;-73
2021/07/20 01:12:10;;;;;;;8.60;7.23;;;15.30;99.90;;;16.45;64.13;94322.44;5009622;28;20185;-73
2021/07/20 01:14:39;;;;;;;8.10;7.30;;;15.30;99.90;;;16.39;64.04;94326.25;5012154;28;20208;-73
2021/07/20 01:17:05;;;;;;;9.87;7.57;;;15.20;99.90;;;16.35;64.12;94320.69;5017513;28;20199;-73
2021/07/20 01:19:37;;;;;;;9.33;7.33;;;15.10;99.90;;;16.35;64.27;94323.34;5016040;28;20272;-72
2021/07/20 01:22:05;;;;;;;11.63;7.50;;;15.10;99.90;;;16.34;64.45;94319.13;5012246;28;20656;-72
2021/07/20 01:24:31;;;;;;;9.70;7.60;;;15.10;99.90;;;16.27;64.31;94313.31;5018126;28;20668;-72
2021/07/20 01:26:57;;;;;;;10.20;7.30;;;15.00;99.90;;;16.21;64.50;94311.81;5022164;28;20643;-73
2021/07/20 01:29:26;;;;;;;15.73;7.87;;;15.00;99.90;;;16.19;64.63;94315.84;5006151;28;20208;-70
2021/07/20 01:31:54;;;;;;;10.73;7.83;;;15.00;99.90;;;16.18;64.70;94320.38;5045961;28;20189;-72
2021/07/20 01:34:22;;;;;;;8.73;7.03;;;14.90;99.90;;;16.13;64.74;94319.66;5041507;28;20271;-73
2021/07/20 01:36:50;;;;;;;9.03;7.23;;;14.90;99.90;;;16.11;65.10;94311.94;5013359;28;20213;-73
2021/07/20 01:39:17;;;;;;;9.70;8.27;;;14.90;99.90;;;15.96;64.93;94314.00;5024518;28;20549;-72
2021/07/20 01:41:48;;;;;;;9.87;8.87;;;14.80;99.90;;;15.88;65.20;94323.50;5012093;28;20223;-72
2021/07/20 01:44:15;;;;;;;11.57;8.90;;;14.70;99.90;;;15.85;65.30;94316.81;5033296;28;20640;-70
2021/07/20 01:46:45;;;;;;;11.73;9.10;;;14.70;99.90;;;15.85;65.15;94318.69;5025514;28;20188;-73
2021/07/20 01:49:16;;;;;;;10.37;9.30;;;14.70;99.90;;;15.90;65.42;94315.97;5052069;28;20200;-73
2021/07/20 01:51:44;;;;;;;10.03;8.00;;;14.80;99.90;;;15.91;65.49;94320.25;5021575;28;20223;-73
2021/07/20 01:54:12;;;;;;;11.10;7.97;;;14.80;99.90;;;15.94;65.62;94319.66;5018354;28;20849;-73
2021/07/20 01:56:39;;;;;;;8.87;7.47;;;14.80;99.90;;;15.96;65.93;94330.84;5014242;28;20194;-73
2021/07/20 01:59:13;;;;;;;9.00;8.13;;;14.80;99.90;;;15.97;65.54;94329.78;5037801;28;20190;-72
2021/07/20 02:01:52;;;;;;;10.90;8.67;;;14.80;99.90;;;16.00;66.06;94329.22;5026560;28;20209;-73
2021/07/20 02:10:09;;;;;;;11.60;8.87;;;14.80;99.90;;;15.94;66.04;94317.00;5021695;28;20246;-72
2021/07/20 02:12:41;;;;;;;9.73;8.73;;;14.70;99.90;;;15.93;66.25;94319.94;5038021;28;20232;-73
2021/07/20 02:15:08;;;;;;;12.93;9.40;;;14.70;99.90;;;15.89;66.14;94311.69;5007887;28;20239;-72
2021/07/20 02:17:38;;;;;;;11.17;8.47;;;14.60;99.90;;;15.88;66.41;94324.25;5032773;28;20351;-73
2021/07/20 02:20:13;;;;;;;9.93;8.93;;;14.60;99.90;;;15.91;66.56;94328.25;5012575;28;20639;-71
2021/07/20 02:22:43;;;;;;;10.83;8.40;;;14.60;99.90;;;15.85;66.75;94324.84;4992218;28;20208;-72
2021/07/20 02:25:11;;;;;;;12.50;8.90;;;14.60;99.90;;;15.74;66.57;94323.38;5039021;28;20246;-73
2021/07/20 02:27:39;;;;;;;9.87;8.60;;;14.60;99.90;;;15.69;66.93;94323.44;5023553;28;20613;-72
2021/07/20 02:30:13;;;;;;;10.77;8.50;;;14.50;99.90;;;15.62;66.88;94328.31;5039678;28;20232;-72
2021/07/20 02:32:41;;;;;;;11.60;8.90;;;14.40;99.90;;;15.54;67.10;94315.63;5021790;28;20243;-73
2021/07/20 02:35:10;;;;;;;10.30;9.17;;;14.30;99.90;;;15.53;66.96;94324.69;5032251;28;20219;-73
2021/07/20 02:37:38;;;;;;;10.73;9.43;;;14.90;99.90;;;15.43;66.69;94323.97;4991895;28;20320;-72
2021/07/20 02:40:09;;;;;;;11.73;10.53;;;14.30;99.90;;;15.44;67.11;94330.91;5023836;28;20196;-73
2021/07/20 02:42:37;;;;;;;14.40;9.13;;;15.20;99.90;;;15.43;67.04;94321.31;5011555;28;20225;-71
2021/07/20 02:45:11;;;;;;;10.37;9.03;;;14.60;99.90;;;15.39;67.13;94316.53;5006707;28;20192;-73
2021/07/20 02:47:38;;;;;;;11.00;9.10;;;14.40;99.90;;;15.37;67.42;94318.69;5013263;28;20228;-73
2021/07/20 02:50:07;;;;;;;10.70;9.07;;;14.30;99.90;;;15.39;67.62;94329.09;5004834;28;20189;-73
2021/07/20 02:52:37;;;;;;;12.40;10.00;;;14.20;99.90;;;15.36;67.80;94325.13;5015143;28;20200;-72
2021/07/20 02:55:03;;;;;;;13.50;9.60;;;14.10;99.90;;;15.28;67.75;94320.38;5024079;28;20189;-72
2021/07/20 02:57:32;;;;;;;13.30;9.60;;;14.10;99.90;;;15.30;67.54;94320.91;5021240;28;20211;-73
2021/07/20 02:59:59;;;;;;;10.73;9.63;;;14.10;99.90;;;15.29;67.80;94326.53;5033664;28;20207;-73
2021/07/20 03:02:27;;;;;;;13.50;9.57;;;14.10;99.90;;;15.27;67.71;94321.47;5018594;28;20279;-73
2021/07/20 03:04:58;;;;;;;13.60;9.97;;;14.10;99.90;;;15.24;67.87;94315.91;5007389;28;20701;-73
2021/07/20 03:07:32;;;;;;;11.63;8.93;;;14.00;99.90;;;15.22;67.88;94318.03;5020081;28;20406;-72
2021/07/20 03:10:01;;;;;;;13.00;9.77;;;14.00;99.90;;;15.15;68.06;94318.38;5036100;28;20532;-73
2021/07/20 03:12:29;;;;;;;14.30;10.47;;;13.90;99.90;;;15.03;67.83;94319.84;5015461;28;20200;-72
2021/07/20 03:14:58;;;;;;;11.40;10.23;;;13.90;99.90;;;15.02;68.17;94327.06;5015587;28;20209;-74
2021/07/20 03:17:31;;;;;;;15.93;11.40;;;13.90;99.90;;;15.03;68.23;94325.19;5025157;28;20213;-72
2021/07/20 03:20:00;;;;;;;12.57;9.60;;;13.80;99.90;;;15.21;68.16;94322.59;5019512;28;20202;-73
2021/07/20 03:22:31;;;;;;;12.50;9.53;;;14.00;99.90;;;15.14;68.04;94316.78;5026201;28;20205;-72
2021/07/20 03:25:00;;;;;;;11.23;9.50;;;14.60;99.90;;;15.02;68.58;94319.03;5022304;28;20188;-73
2021/07/20 03:27:31;;;;;;;13.83;9.90;;;13.80;99.90;;;15.03;68.42;94323.31;5003244;28;20189;-73
2021/07/20 03:29:59;;;;;;;10.73;9.63;;;13.80;99.90;;;14.96;68.56;94327.38;5020341;28;20887;-73
2021/07/20 03:32:27;;;;;;;12.63;9.93;;;13.80;99.90;;;14.89;68.53;94330.38;5026319;28;20208;-73
2021/07/20 03:34:54;;;;;;;13.20;9.37;;;13.70;99.90;;;14.91;68.89;94325.53;5024385;28;20250;-73
2021/07/20 03:37:22;;;;;;;14.63;10.13;;;13.70;99.90;;;14.94;68.62;94332.22;5031488;28;20875;-73
2021/07/20 03:39:52;;;;;;;12.70;9.70;;;13.70;99.90;;;14.92;68.83;94332.47;5013416;28;20695;-73
2021/07/20 03:42:23;;;;;;;12.37;9.73;;;13.70;99.90;;;14.94;68.82;94330.31;5024027;28;20219;-71
2021/07/20 03:44:53;;;;;;;12.10;9.83;;;13.70;99.90;;;14.88;69.09;94336.78;5051734;28;20193;-72
2021/07/20 03:47:19;;;;;;;14.97;11.17;;;13.70;99.90;;;14.85;68.96;94334.66;5041596;28;20658;-72
2021/07/20 03:49:47;;;;;;;14.00;11.30;;;13.70;99.90;;;14.84;68.89;94335.78;5030772;28;20254;-72
2021/07/20 03:52:17;;;;;;;17.33;12.73;;;13.60;99.90;;;14.89;69.16;94341.06;5025018;28;20202;-72
2021/07/20 03:54:43;;;;;;;16.23;12.90;;;13.60;99.90;;;14.89;69.28;94335.72;5029651;28;20204;-72
2021/07/20 03:57:17;;;;;;;13.83;12.43;;;13.60;99.90;;;14.87;68.89;94340.53;5021393;28;20852;-72
2021/07/20 03:59:44;;;;;;;16.53;12.73;;;13.60;99.90;;;14.91;69.44;94346.91;5029124;28;20656;-72
2021/07/20 04:02:11;;;;;;;18.00;12.10;;;13.70;99.90;;;14.91;69.31;94352.22;5041356;28;20223;-73
2021/07/20 04:04:40;;;;;;;16.57;11.30;;;13.70;99.90;;;14.93;69.44;94344.75;5022666;28;20196;-73
2021/07/20 04:07:20;;;;;;;16.47;11.80;;;13.70;99.90;;;14.94;69.50;94351.66;5019872;28;20296;-72
2021/07/20 04:09:51;;;;;;;16.40;11.57;;;13.60;99.90;;;14.93;69.76;94351.97;5024209;28;20228;-72
2021/07/20 04:12:20;;;;;;;13.43;10.83;;;13.60;99.90;;;14.93;69.71;94352.75;5021038;28;20761;-71
2021/07/20 04:14:47;;;;;;;13.33;11.07;;;13.70;99.90;;;15.00;69.86;94355.91;5010206;28;20205;-72
2021/07/20 04:17:17;;;;;;;13.93;10.80;;;13.70;99.90;;;15.06;69.71;94356.66;5027154;28;20196;-73
2021/07/20 04:19:46;;;;;;;15.20;11.90;;;13.90;99.90;;;15.08;70.23;94343.81;5028249;28;20195;-73
2021/07/20 04:22:17;;;;;;;16.83;11.40;;;13.80;99.90;;;15.05;69.90;94350.50;5020039;28;20221;-72
2021/07/20 04:24:47;;;;;;;15.13;10.63;;;14.10;99.90;;;15.12;69.99;94363.53;5025051;28;20206;-73
2021/07/20 04:27:16;;;;;;;13.03;10.43;;;13.80;99.90;;;15.17;70.07;94360.84;5038352;28;20220;-73
2021/07/20 04:29:42;;;;;;;11.90;10.60;;;13.90;99.90;;;15.23;70.09;94357.84;5024039;28;20218;-73
2021/07/20 04:32:09;;;;;;;12.93;10.17;;;14.60;99.90;;;15.23;70.02;94360.50;5007304;28;20290;-72
2021/07/20 04:34:37;;;;;;;12.03;9.60;;;14.20;99.90;;;15.29;69.90;94364.72;5039523;28;20227;-74
2021/07/20 04:37:07;;;;;;;11.17;9.50;;;14.80;99.90;;;15.35;70.35;94362.78;5027249;28;20221;-72
2021/07/20 04:39:37;;;;;;;14.70;9.97;;;14.40;99.90;;;15.41;70.78;94354.44;5022113;28;20196;-73
2021/07/20 04:42:05;;;;;;;14.17;10.97;;;14.20;99.90;;;15.39;70.65;94353.94;5025089;28;20214;-72
2021/07/20 04:44:32;;;;;;;13.27;10.43;;;14.20;99.90;;;15.44;70.46;94360.31;5036273;28;20186;-72
2021/07/20 04:47:01;;;;;;;20.13;11.73;;;14.20;99.90;;;15.51;70.53;94358.13;5010893;28;20219;-72
2021/07/20 04:49:27;;;;;;;18.37;12.10;;;14.20;99.90;;;15.53;70.61;94363.97;5024635;28;20193;-70
2021/07/20 04:52:00;;;;;;;18.27;12.20;;;14.20;99.90;;;15.62;70.76;94371.06;5022651;28;20731;-71
2021/07/20 04:54:29;;;;;;;14.87;11.53;;;14.30;99.90;;;15.70;70.72;94372.34;5018065;28;20188;-73
2021/07/20 04:56:59;;;;;;;14.07;11.90;;;14.40;99.90;;;15.80;70.73;94367.69;5005936;28;20196;-71
2021/07/20 04:59:25;;;;;;;12.80;10.50;;;14.40;99.90;;;15.90;70.82;94366.75;5023431;28;20196;-73
2021/07/20 05:01:53;;;;;;;18.07;11.07;;;14.60;99.90;;;15.99;70.94;94370.38;5012167;28;20786;-72
2021/07/20 05:04:21;;;;;;;15.50;10.90;;;14.60;99.90;;;16.08;71.04;94375.91;5010791;28;20216;-73
2021/07/20 05:06:51;;;;;;;14.97;10.27;;;14.70;99.90;;;16.25;71.21;94381.56;5020559;28;20193;-73
2021/07/20 05:09:18;;;;;;;13.53;10.00;;;14.90;99.90;;;16.38;71.24;94373.59;5016162;28;20212;-72
2021/07/20 05:11:45;;;;;;;12.60;10.37;;;15.00;99.90;;;16.52;71.30;94379.03;5018366;28;20532;-73
2021/07/20 05:14:11;;;;;;;12.17;10.00;;;15.20;99.90;;;16.65;70.97;94373.03;5018303;28;20344;-73
2021/07/20 05:16:39;;;;;;;12.87;10.73;;;15.30;99.90;;;16.76;71.38;94381.66;5040967;28;20204;-73
2021/07/20 05:19:06;;;;;;;13.67;10.80;;;15.50;99.90;;;16.90;71.38;94377.19;5021875;28;20696;-71
2021/07/20 05:21:33;;;;;;;12.73;11.30;;;15.60;99.90;;;16.94;71.62;94378.19;5019755;28;20718;-73
2021/07/20 05:24:00;;;;;;;14.53;11.67;;;15.70;99.90;;;17.07;71.39;94382.81;5049828;28;20712;-72
2021/07/20 05:26:30;;;;;;;15.63;11.80;;;15.90;99.90;;;17.15;71.29;94384.03;5026772;28;20201;-73
2021/07/20 05:28:58;;;;;;;13.70;10.93;;;15.90;99.90;;;17.36;71.60;94387.94;5033907;28;20198;-73
2021/07/20 05:31:26;;;;;;;15.40;11.43;;;16.10;99.90;;;17.46;71.32;94389.66;5006864;28;20194;-74
2021/07/20 05:33:55;;;;;;;14.40;11.67;;;16.20;99.90;;;17.63;71.50;94396.06;5050851;28;21034;-73
2021/07/20 05:36:27;;;;;;;14.40;12.03;;;16.40;99.90;;;17.80;71.53;94393.59;5021896;28;20315;-73
2021/07/20 05:38:55;;;;;;;13.57;12.17;;;16.50;99.90;;;17.96;71.46;94391.44;5021911;28;20195;-71
2021/07/20 05:41:21;;;;;;;16.53;12.47;;;16.70;99.90;;;18.11;71.33;94379.59;5023471;28;20216;-72
2021/07/20 05:43:48;;;;;;;15.33;12.83;;;16.90;99.90;;;18.26;71.36;94380.09;5023766;28;20191;-72
2021/07/20 05:46:14;;;;;;;19.47;12.40;;;17.00;99.90;;;18.47;71.60;94379.66;5019241;28;20333;-72
2021/07/20 05:48:44;;;;;;;17.53;11.70;;;17.20;99.90;;;19.02;71.47;94399.91;5027701;28;20290;-73
2021/07/20 05:51:12;;;;;;;15.00;12.50;;;17.60;99.90;;;20.18;71.15;94429.25;5021556;28;20222;-72
2021/07/20 05:53:39;;;;;;;12.87;11.07;;;18.60;99.90;;;21.33;71.04;94429.66;5011001;28;20255;-73
2021/07/20 05:56:06;;;;;;;14.33;11.57;;;19.90;99.90;;;22.38;71.14;94407.50;5018333;28;20199;-75
2021/07/20 05:58:32;;;;;;;12.07;10.53;;;21.10;99.90;;;23.56;70.66;94418.94;5020159;28;20554;-75
2021/07/20 06:01:04;;;;;;;12.67;10.47;;;22.40;99.90;;;24.22;70.56;94398.81;5015800;28;20207;-74
2021/07/20 06:03:35;;;;;;;13.23;10.67;;;23.50;99.90;;;24.86;70.54;94439.63;5008915;28;20212;-74
2021/07/20 06:06:02;;;;;;;13.33;11.17;;;24.30;99.90;;;25.90;69.83;94434.13;5022461;28;20196;-73
2021/07/20 06:08:29;;;;;;;12.50;11.30;;;25.40;99.90;;;26.03;69.48;94416.63;5032668;28;20651;-70
2021/07/20 06:10:58;;;;;;;11.37;9.73;;;25.90;99.90;;;26.86;69.68;94440.06;5022899;28;20219;-69
2021/07/20 06:13:34;;;;;;;13.03;10.43;;;26.60;99.90;;;27.62;68.87;94430.50;5017448;28;20200;-71
2021/07/20 06:16:00;;;;;;;12.10;10.30;;;27.50;99.90;;;27.89;69.01;94366.00;5009219;28;20185;-71
2021/07/20 06:18:26;;;;;;;13.53;10.33;;;28.20;99.90;;;28.66;68.23;94425.78;5008453;28;20275;-70
2021/07/20 06:21:00;;;;;;;10.90;9.83;;;28.80;99.90;;;28.56;68.59;94319.97;5021085;28;20380;-70
2021/07/20 06:23:35;;;;;;;10.93;9.83;;;29.70;99.90;;;28.56;67.92;94371.81;5020062;28;20200;-71
2021/07/20 06:26:04;;;;;;;13.53;11.13;;;29.30;99.90;;;27.77;67.71;94352.56;5005564;28;20180;-75
2021/07/20 06:28:30;;;;;;;11.77;10.53;;;29.00;99.90;;;27.91;67.28;94408.09;5023106;28;20185;-73
2021/07/20 06:30:58;;;;;;;11.50;10.40;;;28.50;99.90;;;28.64;66.96;94444.47;5034903;28;20181;-73
2021/07/20 06:33:26;;;;;;;12.57;10.60;;;29.30;99.90;;;29.57;66.56;94433.78;5024026;28;20212;-74
2021/07/20 06:35:53;;;;;;;11.63;10.27;;;30.20;99.90;;;30.23;65.91;94428.31;5008630;28;20586;-74
2021/07/20 06:38:24;;;;;;;11.33;10.23;;;30.90;99.90;;;30.56;65.32;94419.25;5006910;28;20242;-75
2021/07/20 06:40:53;;;;;;;10.87;9.87;;;31.50;99.90;;;31.29;64.67;94422.94;5019873;28;20211;-72
2021/07/20 06:43:21;;;;;;;12.27;10.60;;;32.20;99.50;;;31.33;64.43;94386.16;5018563;28;20208;-72
2021/07/20 06:45:48;;;;;;;11.27;10.17;;;32.50;99.00;;;31.85;63.92;94375.81;5019660;28;20201;-73
2021/07/20 06:48:17;;;;;;;12.40;11.07;;;33.00;96.80;;;30.20;64.02;94292.28;5034575;28;20184;-73
2021/07/20 06:50:46;;;;;;;12.30;10.80;;;31.80;96.80;;;29.59;63.74;94410.38;5022282;28;20272;-73
2021/07/20 06:53:15;;;;;;;12.40;10.90;;;31.10;98.40;;;29.32;63.21;94327.69;5022528;28;20184;-74
2021/07/20 06:55:51;;;;;;;13.53;11.00;;;30.80;99.50;;;30.13;62.71;94437.19;5007279;28;20187;-73
2021/07/20 06:58:26;;;;;;;12.43;10.83;;;31.40;99.00;;;31.58;61.93;94443.09;5033876;28;20187;-73
2021/07/20 07:00:59;;;;;;;13.20;10.53;;;32.40;96.60;;;30.06;62.17;94329.66;5023491;28;20188;-75
2021/07/20 07:03:30;;;;;;;12.80;11.13;;;31.50;97.70;;;29.68;62.04;94386.28;5019201;28;20201;-72
2021/07/20 07:06:01;;;;;;;11.70;10.70;;;30.90;97.90;;;29.17;61.79;94377.03;5048232;28;20197;-74
2021/07/20 07:08:30;;;;;;;12.03;10.77;;;30.30;99.80;;;28.54;61.09;94355.81;5008087;28;20192;-73
2021/07/20 07:10:58;;;;;;;14.20;11.17;;;29.30;99.90;;;28.37;60.97;94326.34;5017592;28;20191;-73
2021/07/20 07:13:26;;;;;;;12.70;11.40;;;28.80;99.90;;;27.97;60.93;94389.47;5013943;28;20779;-74
2021/07/20 07:15:55;;;;;;;12.37;10.80;;;28.20;99.90;;;27.12;60.97;94379.63;5003816;28;20902;-74
2021/07/20 07:18:22;;;;;;;17.40;11.97;;;27.20;99.90;;;27.21;60.92;94373.97;5022482;28;20204;-73
2021/07/20 07:20:50;;;;;;;12.27;11.07;;;26.90;99.90;;;26.16;60.88;94370.31;4996645;28;20287;-73
2021/07/20 07:23:18;;;;;;;15.40;10.77;;;25.80;99.90;;;26.30;60.43;94434.03;5016205;28;20213;-73
2021/07/20 07:25:54;;;;;;;15.07;11.80;;;25.60;99.90;;;26.40;60.29;94413.69;5045962;28;20662;-72
2021/07/20 07:28:21;;;;;;;15.97;11.10;;;25.60;99.90;;;26.17;60.40;94421.66;5023892;28;20185;-72
2021/07/20 07:30:51;;;;;;;12.83;9.73;;;25.30;99.90;;;26.28;60.31;94406.41;5020277;28;20188;-71
2021/07/20 07:33:23;;;;;;;13.10;10.53;;;25.40;99.90;;;27.03;59.98;94457.94;5019681;28;20597;-73
2021/07/20 07:35:53;;;;;;;11.17;9.60;;;26.20;99.90;;;28.68;59.66;94487.03;5004012;28;20556;-72
2021/07/20 07:38:20;;;;;;;12.93;10.43;;;27.70;99.90;;;29.60;59.17;94449.41;5020024;28;20306;-72
2021/07/20 07:40:55;;;;;;;15.20;9.50;;;28.90;99.90;;;30.63;59.08;94454.91;5034183;28;20331;-72
2021/07/20 07:43:25;;;;;;;9.93;8.87;;;30.20;99.90;;;30.86;59.16;94405.41;5024770;28;20239;-72
2021/07/20 07:45:57;;;;;;;9.10;8.17;;;30.80;99.90;;;30.91;58.48;94358.50;5051371;28;20188;-72
2021/07/20 07:48:26;;;;;;;9.57;8.57;;;31.10;99.90;;;31.74;58.38;94470.97;5020622;28;20284;-72
2021/07/20 07:50:57;;;;;;;9.70;8.70;;;32.30;99.40;;;31.32;58.36;94400.25;5007477;28;20220;-72
2021/07/20 07:53:27;;;;;;;9.67;8.77;;;32.00;98.20;;;32.46;57.70;94470.88;5006484;28;20263;-73
2021/07/20 07:55:54;;;;;;;9.93;8.93;;;33.10;96.00;;;33.26;57.20;94428.16;5019456;28;20189;-73
2021/07/20 07:58:23;;;;;;;12.07;9.40;;;34.00;95.00;;;33.90;56.55;94533.34;5022939;28;20188;-73
2021/07/20 08:00:51;;;;;;;8.75;7.95;;;34.80;93.60;;;33.78;56.49;94326.66;5018830;28;20193;-74
2021/07/20 08:03:20;;;;;;;9.50;7.88;;;35.00;91.80;;;33.69;56.07;94463.81;5001557;28;20724;-74
2021/07/20 08:05:49;;;;;;;8.50;6.63;;;35.00;90.50;;;33.60;55.89;94403.72;5037893;28;20227;-74
2021/07/20 08:08:17;;;;;;;7.97;7.13;;;35.00;90.90;;;34.36;55.25;94463.56;5018631;28;20200;-72
2021/07/20 08:10:44;;;;;;;9.07;6.60;;;35.60;89.60;;;34.56;54.73;94472.09;5018166;28;20649;-74
2021/07/20 08:13:12;;;;;;;8.57;6.82;;;35.90;87.90;;;34.87;54.69;94433.34;4997561;28;20192;-75
2021/07/20 08:15:38;;;;;;;7.45;6.63;;;36.40;83.50;;;35.58;53.99;94415.34;5020409;28;20213;-73
2021/07/20 08:18:05;;;;;;;8.57;6.88;;;37.20;81.00;;;36.68;53.48;94450.66;5014310;28;20219;-72
2021/07/20 08:20:32;;;;;;;9.00;7.20;;;37.80;81.00;;;35.94;53.17;94392.47;5006834;28;20224;-73
2021/07/20 08:22:58;;;;;;;8.73;6.93;;;37.40;82.00;;;36.72;52.71;94456.94;5024892;28;20227;-75
2021/07/20 08:25:30;;;;;;;7.32;6.63;;;38.20;79.50;;;37.31;52.51;94471.78;4984820;28;20234;-76
2021/07/20 08:28:12;;;;;;;11.02;7.28;;;39.00;76.10;;;37.06;51.89;94460.38;5007199;28;20212;-75
2021/07/20 08:30:42;;;;;;;8.25;7.18;;;39.00;75.90;;;36.89;51.50;94429.03;4994109;28;20228;-75
2021/07/20 08:33:17;;;;;;;8.70;6.93;;;39.10;73.90;;;36.51;51.07;94372.34;4995467;28;20207;-71
2021/07/20 08:35:44;;;;;;;10.52;7.47;;;38.90;75.20;;;37.69;50.66;94480.63;4982843;28;20259;-75
2021/07/20 08:38:14;;;;;;;8.70;6.85;;;39.80;71.70;;;37.88;50.30;94393.25;5000995;28;20185;-72
2021/07/20 08:40:58;;;;;;;9.40;7.68;;;40.30;72.30;;;35.48;50.21;94373.69;5031683;28;20291;-73
2021/07/20 08:44:19;;;;;;;8.70;7.80;;;37.90;75.00;;;36.52;49.44;94581.13;5008038;28;20204;-72
2021/07/20 08:47:14;;;;;;;8.43;7.60;;;38.00;72.10;;;37.14;48.92;94427.88;5024417;28;20520;-71
2021/07/20 08:50:14;;;;;;;8.55;7.75;;;39.30;71.00;;;37.23;48.99;94372.78;5019145;28;20298;-74
2021/07/20 08:52:48;;;;;;;7.07;6.40;;;39.00;70.60;;;37.22;47.91;94452.19;4960528;28;20211;-73
2021/07/20 08:55:23;;;;;;;10.38;7.13;;;39.40;71.50;;;37.05;48.09;94330.81;4947467;28;20757;-72
2021/07/20 08:58:01;;;;;;;7.55;6.85;;;39.20;71.30;;;37.25;47.56;94395.25;4940579;28;20250;-73
2021/07/20 09:00:44;;;;;;;9.55;8.43;;;39.50;73.60;;;37.04;47.45;94460.00;4935952;28;20232;-74
2021/07/20 09:03:38;;;;;;;8.07;7.10;;;39.30;69.60;;;38.42;46.89;94441.59;4945766;28;20512;-73
2021/07/20 09:06:07;;;;;;;7.85;6.97;;;40.60;68.50;;;38.44;46.34;94358.06;4933372;28;20201;-73
2021/07/20 09:09:18;;;;;;;8.85;7.63;;;40.80;70.40;;;38.16;46.33;94405.75;4945329;28;20266;-75
2021/07/20 09:11:46;;;;;;;8.95;8.13;;;40.70;67.90;;;38.10;45.73;94454.56;4948658;28;20191;-72
2021/07/20 09:14:44;;;;;;;8.02;7.22;;;40.70;67.60;;;39.39;45.00;94461.13;4961679;28;20199;-75
2021/07/20 09:17:30;;;;;;;9.02;8.15;;;42.30;65.80;;;38.55;44.97;94519.31;4948922;28;20218;-73
2021/07/20 09:20:06;;;;;;;9.25;8.35;;;41.20;65.70;;;39.15;44.50;94468.06;4946383;28;20198;-72
2021/07/20 09:22:47;;;;;;;8.57;7.78;;;41.70;64.00;;;38.51;44.88;94343.25;4949761;28;20230;-75
2021/07/20 09:25:21;;;;;;;10.27;8.70;;;41.40;64.60;;;39.78;43.67;94484.34;4955519;28;20184;-72
2021/07/20 09:27:56;;;;;;;9.93;8.63;;;42.60;63.70;;;39.96;43.92;94312.41;4944320;28;20278;-71
2021/07/20 09:30:33;;;;;;;9.45;8.40;;;42.90;63.70;;;39.30;43.74;94347.19;5007150;28;20207;-72
2021/07/20 09:33:36;;;;;;;10.32;8.60;;;42.10;63.80;;;38.59;43.41;94433.31;5024195;28;20216;-71
2021/07/20 09:36:12;;;;;;;11.50;9.23;;;41.40;66.50;;;38.41;43.37;94415.09;5010720;28;20557;-71
2021/07/20 09:39:10;;;;;;;9.68;8.68;;;41.00;65.50;;;36.91;42.92;94340.91;5020015;28;20188;-72
2021/07/20 09:41:50;;;;;;;10.05;8.65;;;39.90;66.60;;;37.41;42.47;94539.22;4959892;28;20384;-72
2021/07/20 09:44:28;;;;;;;10.52;8.98;;;39.60;69.90;;;38.62;42.66;94451.84;4988834;28;20201;-71
2021/07/20 09:47:05;;;;;;;10.85;9.75;;;40.60;67.80;;;39.06;42.22;94476.22;4971508;28;20201;-72
2021/07/20 09:50:00;;;;;;;10.35;9.27;;;41.20;65.60;;;39.45;41.31;94501.03;4989480;28;20224;-72
2021/07/20 09:53:14;;;;;;;10.52;9.63;;;41.60;66.50;;;39.84;41.77;94432.59;5004051;28;21062;-72
2021/07/20 09:56:09;;;;;;;13.50;9.32;;;42.50;64.20;;;39.27;41.42;94470.19;5000880;28;20205;-72
2021/07/20 09:58:56;;;;;;;9.77;8.90;;;41.90;64.70;;;39.70;41.25;94430.22;4989007;28;20197;-71
2021/07/20 10:01:36;;;;;;;14.35;9.65;;;42.40;63.80;;;41.17;40.49;94459.66;5004824;28;20224;-72
2021/07/20 10:04:08;;;;;;;10.43;9.43;;;43.90;61.90;;;39.75;40.46;94368.59;4972984;28;20278;-73
2021/07/20 10:06:45;;;;;;;12.15;9.73;;;43.30;62.10;;;40.41;40.16;94349.16;4985069;28;20904;-72
2021/07/20 10:09:59;;;;;;;11.77;8.82;;;43.80;61.80;;;40.76;39.76;94460.53;5002842;28;20279;-72
2021/07/20 10:13:28;;;;;;;9.07;8.20;;;43.90;60.60;;;40.18;39.39;94446.75;5007646;28;20790;-72
2021/07/20 10:16:19;;;;;;;10.73;9.15;;;43.20;61.20;;;36.82;39.63;94245.91;4986239;28;20221;-72
2021/07/20 10:19:06;;;;;;;10.15;8.68;;;40.30;63.30;;;35.59;39.28;94474.84;4999437;28;20208;-71
2021/07/20 10:21:36;;;;;;;8.85;8.05;;;38.10;67.30;;;37.77;39.12;94443.31;5037866;28;20245;-72
2021/07/20 10:24:14;;;;;;;9.93;8.90;;;39.40;68.80;;;38.80;38.36;94491.84;5018570;28;20192;-72
2021/07/20 10:27:13;;;;;;;10.77;7.97;;;40.40;63.70;;;40.60;38.45;94507.91;5022600;28;20195;-71
2021/07/20 10:30:14;;;;;;;9.32;8.38;;;42.70;60.80;;;40.38;38.31;94304.78;5023819;28;20887;-72
2021/07/20 10:32:48;;;;;;;9.07;8.27;;;43.50;59.50;;;39.06;38.47;94351.38;5006130;28;20243;-73
2021/07/20 10:35:50;;;;;;;10.60;8.95;;;41.90;62.00;;;38.36;37.63;94481.31;5027132;28;20212;-72
2021/07/20 10:38:20;;;;;;;9.60;8.80;;;40.60;61.90;;;38.63;37.57;94321.16;5016165;28;20297;-71